createdAt,value
2023-03-26T00:00:38.218Z,98182.63
2023-03-26T00:03:10.223Z,98186.80
2023-03-26T00:05:40.973Z,98185.30
2023-03-26T00:08:12.182Z,98186.23
2023-03-26T00:10:44.385Z,98184.31
2023-03-26T00:13:15.231Z,98187.90
2023-03-26T00:15:46.317Z,98189.95
2023-03-26T00:18:17.249Z,98186.79
2023-03-26T00:20:48.055Z,98180.57
2023-03-26T00:23:18.997Z,98181.05
2023-03-26T00:25:50.958Z,98182.56
2023-03-26T00:28:22.718Z,98180.55
2023-03-26T00:31:01.145Z,98180.95
2023-03-26T00:33:32.614Z,98180.61
2023-03-26T00:36:04.792Z,98179.98
2023-03-26T00:38:38.888Z,98179.75
2023-03-26T00:41:17.484Z,98178.52
2023-03-26T00:43:48.799Z,98176.14
2023-03-26T00:46:20.381Z,98180.40
2023-03-26T00:48:51.746Z,98178.39
2023-03-26T00:51:23.815Z,98181.05
2023-03-26T00:53:54.988Z,98177.29
2023-03-26T00:56:26.427Z,98176.95
2023-03-26T00:58:57.849Z,98179.20
2023-03-26T01:01:30.738Z,98174.25
2023-03-26T01:04:15.887Z,98172.51
2023-03-26T01:06:46.960Z,98173.11
2023-03-26T01:09:20.278Z,98169.94
2023-03-26T01:11:51.682Z,98167.39
2023-03-26T01:14:26.936Z,98167.19
2023-03-26T01:16:59.261Z,98168.31
2023-03-26T01:19:38.081Z,98165.39
2023-03-26T01:22:11.355Z,98166.61
2023-03-26T01:24:43.770Z,98166.77
2023-03-26T01:27:25.785Z,98169.43
2023-03-26T01:30:01.609Z,98166.50
2023-03-26T01:32:45.003Z,98168.70
2023-03-26T01:35:27.489Z,98166.39
2023-03-26T01:38:11.621Z,98167.19
2023-03-26T01:40:49.630Z,98165.48
2023-03-26T01:43:33.716Z,98166.93
2023-03-26T01:46:08.139Z,98166.10
2023-03-26T01:48:41.733Z,98161.30
2023-03-26T01:51:11.716Z,98160.77
2023-03-26T01:53:46.064Z,98157.52
2023-03-26T01:56:23.935Z,98155.48
2023-03-26T01:59:07.860Z,98151.65
2023-03-26T02:01:46.500Z,98146.56
2023-03-26T02:04:26.478Z,98151.15
2023-03-26T02:07:05.935Z,98142.86
2023-03-26T02:09:45.969Z,98143.91
2023-03-26T02:12:17.646Z,98142.95
2023-03-26T02:14:48.668Z,98141.59
2023-03-26T02:17:24.356Z,98137.86
2023-03-26T02:19:55.195Z,98138.00
2023-03-26T02:22:30.099Z,98140.52
2023-03-26T02:25:01.137Z,98139.64
2023-03-26T02:27:31.888Z,98131.38
2023-03-26T02:30:03.241Z,98134.20
2023-03-26T02:32:35.172Z,98135.55
2023-03-26T02:35:06.863Z,98136.67
2023-03-26T02:37:38.412Z,98146.34
2023-03-26T02:40:11.999Z,98151.29
2023-03-26T02:42:41.334Z,98151.33
2023-03-26T02:45:12.393Z,98149.49
2023-03-26T02:47:43.435Z,98155.15
2023-03-26T02:50:14.610Z,98151.17
2023-03-26T02:52:49.132Z,98160.23
2023-03-26T02:55:19.943Z,98153.53
2023-03-26T02:57:50.669Z,98161.66
2023-03-26T03:00:22.818Z,98161.30
2023-03-26T03:02:54.380Z,98158.73
2023-03-26T03:05:26.762Z,98155.21
2023-03-26T03:07:58.103Z,98157.17
2023-03-26T03:10:32.945Z,98152.84
2023-03-26T03:13:05.904Z,98148.63
2023-03-26T03:15:36.677Z,98151.17
2023-03-26T03:18:08.186Z,98150.50
2023-03-26T03:20:38.863Z,98149.85
2023-03-26T03:23:09.493Z,98144.00
2023-03-26T03:25:41.098Z,98146.08
2023-03-26T03:28:11.918Z,98139.97
2023-03-26T03:30:42.996Z,98148.88
2023-03-26T03:33:13.839Z,98146.82
2023-03-26T03:35:45.986Z,98146.51
2023-03-26T03:38:17.294Z,98148.85
2023-03-26T03:40:48.004Z,98150.51
2023-03-26T03:43:18.880Z,98151.30
2023-03-26T03:45:49.525Z,98154.14
2023-03-26T03:48:20.601Z,98153.98
2023-03-26T03:50:51.297Z,98156.10
2023-03-26T03:53:26.051Z,98155.96
2023-03-26T03:55:57.980Z,98156.77
2023-03-26T03:58:31.141Z,98162.56
2023-03-26T04:01:04.495Z,98161.67
2023-03-26T04:03:38.972Z,98163.29
2023-03-26T04:06:11.565Z,98159.30
2023-03-26T04:08:42.197Z,98159.98
2023-03-26T04:11:12.795Z,98163.66
2023-03-26T04:13:43.769Z,98158.70
2023-03-26T04:16:14.651Z,98157.40
2023-03-26T04:18:46.490Z,98158.17
2023-03-26T04:21:17.343Z,98157.73
2023-03-26T04:23:48.448Z,98150.83
2023-03-26T04:26:21.076Z,98154.22
2023-03-26T04:28:54.889Z,98154.16
2023-03-26T04:31:30.496Z,98149.96
2023-03-26T04:34:06.887Z,98148.35
2023-03-26T04:36:37.571Z,98147.50
2023-03-26T04:39:08.267Z,98147.32
2023-03-26T04:41:39.285Z,98145.41
2023-03-26T04:44:09.916Z,98138.77
2023-03-26T04:46:43.780Z,98142.73
2023-03-26T04:49:14.969Z,98141.63
2023-03-26T04:51:46.876Z,98139.02
2023-03-26T04:54:21.726Z,98140.21
2023-03-26T04:56:58.513Z,98136.56
2023-03-26T04:59:35.100Z,98130.70
2023-03-26T05:02:08.446Z,98129.98
2023-03-26T05:04:40.854Z,98129.80
2023-03-26T05:07:16.189Z,98128.59
2023-03-26T05:09:46.900Z,98129.41
2023-03-26T05:12:18.073Z,98128.74
2023-03-26T05:14:48.768Z,98126.48
2023-03-26T05:17:21.445Z,98123.70
2023-03-26T05:19:52.806Z,98125.94
2023-03-26T05:22:23.497Z,98128.77
2023-03-26T05:24:54.292Z,98128.98
2023-03-26T05:27:24.931Z,98127.09
2023-03-26T05:30:01.209Z,98126.08
2023-03-26T05:32:33.303Z,98127.47
2023-03-26T05:35:04.491Z,98129.26
2023-03-26T05:37:35.734Z,98131.25
2023-03-26T05:40:12.143Z,98128.16
2023-03-26T05:42:43.285Z,98133.40
2023-03-26T05:45:16.282Z,98134.67
2023-03-26T05:47:47.888Z,98135.91
2023-03-26T05:50:18.776Z,98136.94
2023-03-26T05:52:49.594Z,98137.84
2023-03-26T05:55:22.189Z,98135.50
2023-03-26T05:57:52.889Z,98131.26
2023-03-26T06:00:24.382Z,98132.00
2023-03-26T06:02:56.819Z,98133.06
2023-03-26T06:05:32.707Z,98135.52
2023-03-26T06:08:03.858Z,98139.04
2023-03-26T06:10:34.712Z,98143.88
2023-03-26T06:13:05.433Z,98146.89
2023-03-26T06:15:36.480Z,98147.30
2023-03-26T06:18:07.470Z,98145.34
2023-03-26T06:20:38.442Z,98143.11
2023-03-26T06:23:09.215Z,98149.31
2023-03-26T06:25:41.412Z,98150.12
2023-03-26T06:28:12.389Z,98150.11
2023-03-26T06:30:43.563Z,98154.10
2023-03-26T06:33:14.405Z,98153.95
2023-03-26T06:35:45.971Z,98150.59
2023-03-26T06:38:16.833Z,98153.83
2023-03-26T06:40:47.748Z,98153.15
2023-03-26T06:43:18.605Z,98149.38
2023-03-26T06:45:53.689Z,98155.71
2023-03-26T06:48:24.373Z,98155.39
2023-03-26T06:50:55.502Z,98156.12
2023-03-26T06:53:26.508Z,98153.10
2023-03-26T06:55:57.288Z,98150.34
2023-03-26T06:58:28.233Z,98145.11
2023-03-26T07:01:01.318Z,98145.05
2023-03-26T07:03:32.087Z,98145.96
2023-03-26T07:06:02.805Z,98141.16
2023-03-26T07:08:33.745Z,98134.80
2023-03-26T07:11:04.465Z,98129.92
2023-03-26T07:13:36.706Z,98123.66
2023-03-26T07:16:08.969Z,98130.24
2023-03-26T07:18:39.671Z,98121.05
2023-03-26T07:21:13.002Z,98122.25
2023-03-26T07:23:44.843Z,98119.21
2023-03-26T07:26:34.464Z,98119.15
2023-03-26T07:29:14.873Z,98124.96
2023-03-26T07:31:52.959Z,98122.21
2023-03-26T07:34:42.828Z,98120.02
2023-03-26T07:37:28.000Z,98123.48
2023-03-26T07:40:04.066Z,98122.28
2023-03-26T07:42:51.723Z,98121.71
2023-03-26T07:45:28.325Z,98117.80
2023-03-26T07:48:00.431Z,98112.33
2023-03-26T07:50:31.669Z,98113.70
2023-03-26T07:53:03.320Z,98106.48
2023-03-26T07:55:35.322Z,98103.02
2023-03-26T07:58:21.382Z,98103.05
2023-03-26T08:00:58.154Z,98106.42
2023-03-26T08:04:23.453Z,98101.77
2023-03-26T08:07:01.192Z,98099.86
2023-03-26T08:09:38.628Z,98098.39
2023-03-26T08:12:19.697Z,98091.48
2023-03-26T08:15:02.008Z,98090.23
2023-03-26T08:17:38.206Z,98084.80
2023-03-26T08:20:22.314Z,98081.36
2023-03-26T08:23:02.297Z,98079.20
2023-03-26T08:25:38.179Z,98076.41
2023-03-26T08:28:20.892Z,98078.41
2023-03-26T08:30:55.118Z,98076.52
2023-03-26T08:33:29.763Z,98076.23
2023-03-26T08:36:00.741Z,98075.13
2023-03-26T08:38:31.759Z,98072.78
2023-03-26T08:41:28.954Z,98075.30
2023-03-26T08:44:42.138Z,98074.01
2023-03-26T08:47:42.332Z,98068.91
2023-03-26T08:50:46.813Z,98064.59
2023-03-26T08:53:47.632Z,98071.20
2023-03-26T08:56:27.778Z,98076.12
2023-03-26T08:59:19.888Z,98074.59
2023-03-26T09:02:22.581Z,98073.80
2023-03-26T09:05:39.712Z,98078.11
2023-03-26T09:08:37.001Z,98076.67
2023-03-26T09:11:56.179Z,98080.09
2023-03-26T09:14:52.231Z,98078.48
2023-03-26T09:18:07.894Z,98075.31
2023-03-26T09:20:56.398Z,98076.61
2023-03-26T09:24:07.084Z,98077.00
2023-03-26T09:26:51.835Z,98075.09
2023-03-26T09:29:53.674Z,98072.08
2023-03-26T09:32:59.044Z,98069.53
2023-03-26T09:36:17.208Z,98067.34
2023-03-26T09:38:52.877Z,98060.44
2023-03-26T09:41:36.785Z,98050.54
2023-03-26T09:44:50.812Z,98044.88
2023-03-26T09:47:48.308Z,98037.96
2023-03-26T09:50:31.047Z,98037.27
2023-03-26T09:53:16.977Z,98033.08
2023-03-26T09:56:04.735Z,98028.75
2023-03-26T09:59:00.722Z,98025.60
2023-03-26T10:01:40.666Z,98016.56
2023-03-26T10:04:44.276Z,98017.10
2023-03-26T10:07:32.410Z,98018.06
2023-03-26T10:10:10.240Z,98008.31
2023-03-26T10:12:44.577Z,98002.55
2023-03-26T10:15:32.390Z,97999.95
2023-03-26T10:18:27.314Z,98002.38
2023-03-26T10:21:07.299Z,98000.97
2023-03-26T10:24:02.752Z,98003.14
2023-03-26T10:27:08.705Z,98003.73
2023-03-26T10:30:21.703Z,98002.65
2023-03-26T10:33:05.432Z,97999.29
2023-03-26T10:35:49.317Z,97997.44
2023-03-26T10:38:31.117Z,97990.65
2023-03-26T10:41:14.144Z,97988.56
2023-03-26T10:44:10.656Z,97977.79
2023-03-26T10:47:06.973Z,97976.67
2023-03-26T10:49:49.257Z,97975.48
2023-03-26T10:52:23.339Z,97973.66
2023-03-26T10:54:59.214Z,97969.67
2023-03-26T10:57:44.675Z,97965.39
2023-03-26T11:00:25.389Z,97965.56
2023-03-26T11:03:16.745Z,97960.38
2023-03-26T11:05:53.727Z,97955.77
2023-03-26T11:08:32.886Z,97947.55
2023-03-26T11:11:12.429Z,97946.14
2023-03-26T11:13:53.883Z,97940.55
2023-03-26T11:16:34.554Z,97940.62
2023-03-26T11:19:12.960Z,97927.15
2023-03-26T11:21:55.016Z,97925.13
2023-03-26T11:25:05.629Z,97918.23
2023-03-26T11:27:51.900Z,97910.92
2023-03-26T11:30:39.326Z,97911.73
2023-03-26T11:33:12.711Z,97912.39
2023-03-26T11:35:45.117Z,97905.23
2023-03-26T11:38:21.035Z,97901.45
2023-03-26T11:40:56.601Z,97899.75
2023-03-26T11:43:33.695Z,97891.80
2023-03-26T11:46:05.892Z,97889.50
2023-03-26T11:48:41.939Z,97885.36
2023-03-26T11:51:18.980Z,97878.38
2023-03-26T11:53:50.103Z,97870.61
2023-03-26T11:56:28.743Z,97868.20
2023-03-26T11:59:05.710Z,97870.48
2023-03-26T12:01:50.707Z,97869.04
2023-03-26T12:04:30.011Z,97871.05
2023-03-26T12:07:17.137Z,97863.58
2023-03-26T12:09:54.517Z,97858.70
2023-03-26T12:12:28.303Z,97862.92
2023-03-26T12:14:59.711Z,97858.61
2023-03-26T12:17:34.100Z,97849.94
2023-03-26T12:20:32.116Z,97846.38
2023-03-26T12:23:06.620Z,97847.04
2023-03-26T12:25:39.308Z,97848.73
2023-03-26T12:28:20.395Z,97848.89
2023-03-26T12:31:02.797Z,97844.13
2023-03-26T12:33:35.480Z,97841.38
2023-03-26T12:36:25.719Z,97837.09
2023-03-26T12:39:16.928Z,97836.64
2023-03-26T12:44:45.205Z,97834.38
2023-03-26T12:44:58.848Z,97836.79
2023-03-26T12:47:57.824Z,97836.16
2023-03-26T12:50:33.968Z,97834.87
2023-03-26T12:53:33.410Z,97826.58
2023-03-26T12:56:13.430Z,97822.14
2023-03-26T12:59:18.635Z,97823.07
2023-03-26T13:02:02.285Z,97819.91
2023-03-26T13:05:05.625Z,97819.67
2023-03-26T13:07:52.969Z,97816.00
2023-03-26T13:10:38.539Z,97815.63
2023-03-26T13:13:23.500Z,97814.94
2023-03-26T13:15:58.429Z,97808.77
2023-03-26T13:18:43.607Z,97809.00
2023-03-26T13:21:24.084Z,97808.71
2023-03-26T13:24:02.489Z,97803.68
2023-03-26T13:26:47.129Z,97803.09
2023-03-26T13:29:27.206Z,97798.83
2023-03-26T13:32:09.704Z,97793.75
2023-03-26T13:34:55.831Z,97792.69
2023-03-26T13:37:33.166Z,97789.24
2023-03-26T13:40:25.556Z,97781.09
2023-03-26T13:43:13.728Z,97786.52
2023-03-26T13:45:59.537Z,97783.41
2023-03-26T13:48:35.369Z,97778.27
2023-03-26T13:51:10.913Z,97778.16
2023-03-26T13:53:47.263Z,97774.08
2023-03-26T13:56:24.719Z,97771.15
2023-03-26T13:59:03.704Z,97770.08
2023-03-26T14:01:43.571Z,97766.95
2023-03-26T14:04:21.626Z,97765.09
2023-03-26T14:06:58.296Z,97764.27
2023-03-26T14:09:35.632Z,97758.91
2023-03-26T14:12:39.068Z,97763.27
